sensor_id;sensor_type;location;lat;lon;timestamp;pressure;altitude;pressure_sealevel;temperature;humidity
19600;BME280;9947;57.722;12.012;2023-04-10T00:00:48;102237.03;;;2.51;100.00
19600;BME280;9947;57.722;12.012;2023-04-10T00:03:24;102230.91;;;2.45;100.00
19600;BME280;9947;57.722;12.012;2023-04-10T00:05:53;102240.63;;;2.48;100.00
19600;BME280;9947;57.722;12.012;2023-04-10T00:08:21;102231.53;;;2.58;100.00
19600;BME280;9947;57.722;12.012;2023-04-10T00:10:52;102233.47;;;2.50;100.00
19600;BME280;9947;57.722;12.012;2023-04-10T00:13:20;102236.88;;;2.58;100.00
19600;BME280;9947;57.722;12.012;2023-04-10T00:15:47;102236.84;;;2.60;100.00
19600;BME280;9947;57.722;12.012;2023-04-10T00:18:16;102239.22;;;2.75;100.00
19600;BME280;9947;57.722;12.012;2023-04-10T00:20:50;102239.91;;;2.85;100.00
19600;BME280;9947;57.722;12.012;2023-04-10T00:23:17;102233.63;;;2.87;100.00
19600;BME280;9947;57.722;12.012;2023-04-10T00:25:46;102228.75;;;3.06;100.00
19600;BME280;9947;57.722;12.012;2023-04-10T00:28:14;102227.84;;;3.07;100.00
19600;BME280;9947;57.722;12.012;2023-04-10T00:30:43;102232.19;;;3.11;100.00
19600;BME280;9947;57.722;12.012;2023-04-10T00:33:22;102226.06;;;3.07;100.00
19600;BME280;9947;57.722;12.012;2023-04-10T00:35:54;102220.84;;;3.01;100.00
19600;BME280;9947;57.722;12.012;2023-04-10T00:38:23;102233.22;;;3.05;100.00
19600;BME280;9947;57.722;12.012;2023-04-10T00:40:51;102234.22;;;3.01;100.00
19600;BME280;9947;57.722;12.012;2023-04-10T00:43:20;102239.63;;;2.98;100.00
19600;BME280;9947;57.722;12.012;2023-04-10T00:45:48;102250.41;;;2.94;100.00
19600;BME280;9947;57.722;12.012;2023-04-10T00:48:16;102256.59;;;2.96;100.00
19600;BME280;9947;57.722;12.012;2023-04-10T00:50:45;102259.22;;;2.97;100.00
19600;BME280;9947;57.722;12.012;2023-04-10T00:53:20;102253.97;;;2.94;100.00
19600;BME280;9947;57.722;12.012;2023-04-10T00:55:50;102254.84;;;2.95;100.00
19600;BME280;9947;57.722;12.012;2023-04-10T00:58:20;102252.03;;;3.01;100.00
19600;BME280;9947;57.722;12.012;2023-04-10T01:00:48;102243.84;;;3.08;100.00
19600;BME280;9947;57.722;12.012;2023-04-10T01:03:29;102239.31;;;3.12;100.00
19600;BME280;9947;57.722;12.012;2023-04-10T01:06:02;102245.56;;;3.13;100.00
19600;BME280;9947;57.722;12.012;2023-04-10T01:08:39;102246.25;;;3.21;100.00
19600;BME280;9947;57.722;12.012;2023-04-10T01:11:21;102250.50;;;3.29;100.00
19600;BME280;9947;57.722;12.012;2023-04-10T01:13:57;102248.69;;;3.31;100.00
19600;BME280;9947;57.722;12.012;2023-04-10T01:16:35;102250.41;;;3.34;100.00
19600;BME280;9947;57.722;12.012;2023-04-10T01:19:11;102250.28;;;3.40;100.00
19600;BME280;9947;57.722;12.012;2023-04-10T01:21:41;102252.09;;;3.39;100.00
19600;BME280;9947;57.722;12.012;2023-04-10T01:24:26;102259.91;;;3.47;100.00
19600;BME280;9947;57.722;12.012;2023-04-10T01:27:16;102259.88;;;3.49;100.00
19600;BME280;9947;57.722;12.012;2023-04-10T01:29:51;102266.06;;;3.51;100.00
19600;BME280;9947;57.722;12.012;2023-04-10T01:34:51;102259.88;;;3.49;100.00
19600;BME280;9947;57.722;12.012;2023-04-10T01:37:26;102260.72;;;3.51;100.00
19600;BME280;9947;57.722;12.012;2023-04-10T01:39:58;102258.13;;;3.48;100.00
19600;BME280;9947;57.722;12.012;2023-04-10T01:42:35;102258.84;;;3.54;100.00
19600;BME280;9947;57.722;12.012;2023-04-10T01:45:08;102268.66;;;3.54;100.00
19600;BME280;9947;57.722;12.012;2023-04-10T01:47:38;102262.56;;;3.49;100.00
19600;BME280;9947;57.722;12.012;2023-04-10T01:50:08;102257.09;;;3.53;100.00
19600;BME280;9947;57.722;12.012;2023-04-10T01:52:41;102262.47;;;3.52;100.00
19600;BME280;9947;57.722;12.012;2023-04-10T01:55:16;102260.72;;;3.51;100.00
19600;BME280;9947;57.722;12.012;2023-04-10T01:57:47;102262.41;;;3.55;100.00
19600;BME280;9947;57.722;12.012;2023-04-10T02:00:16;102261.63;;;3.50;100.00
19600;BME280;9947;57.722;12.012;2023-04-10T02:02:44;102253.63;;;3.50;100.00
19600;BME280;9947;57.722;12.012;2023-04-10T02:05:12;102248.28;;;3.50;100.00
19600;BME280;9947;57.722;12.012;2023-04-10T02:07:53;102250.19;;;3.45;100.00
19600;BME280;9947;57.722;12.012;2023-04-10T02:10:28;102251.78;;;3.52;100.00
19600;BME280;9947;57.722;12.012;2023-04-10T02:13:02;102252.59;;;3.55;100.00
19600;BME280;9947;57.722;12.012;2023-04-10T02:15:41;102250.00;;;3.52;100.00
19600;BME280;9947;57.722;12.012;2023-04-10T02:18:15;102250.00;;;3.52;100.00
19600;BME280;9947;57.722;12.012;2023-04-10T02:20:44;102243.75;;;3.52;100.00
19600;BME280;9947;57.722;12.012;2023-04-10T02:23:14;102240.16;;;3.53;100.00
19600;BME280;9947;57.722;12.012;2023-04-10T02:25:44;102238.31;;;3.56;100.00
19600;BME280;9947;57.722;12.012;2023-04-10T02:28:12;102242.84;;;3.53;100.00
19600;BME280;9947;57.722;12.012;2023-04-10T02:30:44;102236.59;;;3.54;100.00
19600;BME280;9947;57.722;12.012;2023-04-10T02:33:12;102245.66;;;3.47;100.00
19600;BME280;9947;57.722;12.012;2023-04-10T02:35:42;102238.34;;;3.55;100.00
19600;BME280;9947;57.722;12.012;2023-04-10T02:38:16;102235.75;;;3.52;100.00
19600;BME280;9947;57.722;12.012;2023-04-10T02:40:46;102238.41;;;3.52;100.00
19600;BME280;9947;57.722;12.012;2023-04-10T02:43:17;102236.72;;;3.48;100.00
19600;BME280;9947;57.722;12.012;2023-04-10T02:45:55;102222.44;;;3.49;100.00
19600;BME280;9947;57.722;12.012;2023-04-10T02:48:22;102225.16;;;3.47;100.00
19600;BME280;9947;57.722;12.012;2023-04-10T02:50:55;102215.50;;;3.42;100.00
19600;BME280;9947;57.722;12.012;2023-04-10T02:53:22;102218.22;;;3.40;100.00
19600;BME280;9947;57.722;12.012;2023-04-10T02:55:58;102219.13;;;3.37;100.00
19600;BME280;9947;57.722;12.012;2023-04-10T02:58:27;102218.25;;;3.37;100.00
19600;BME280;9947;57.722;12.012;2023-04-10T03:03:33;102204.16;;;3.30;100.00
19600;BME280;9947;57.722;12.012;2023-04-10T03:06:02;102197.97;;;3.28;100.00
19600;BME280;9947;57.722;12.012;2023-04-10T03:08:31;102194.41;;;3.28;100.00
19600;BME280;9947;57.722;12.012;2023-04-10T03:11:06;102196.28;;;3.24;100.00
19600;BME280;9947;57.722;12.012;2023-04-10T03:13:34;102194.41;;;3.28;100.00
19600;BME280;9947;57.722;12.012;2023-04-10T03:16:02;102194.53;;;3.23;100.00
19600;BME280;9947;57.722;12.012;2023-04-10T03:18:30;102193.50;;;3.29;100.00
19600;BME280;9947;57.722;12.012;2023-04-10T03:21:00;102197.28;;;3.20;100.00
19600;BME280;9947;57.722;12.012;2023-04-10T03:23:28;102189.44;;;3.11;100.00
19600;BME280;9947;57.722;12.012;2023-04-10T03:26:02;102206.47;;;3.07;100.00
19600;BME280;9947;57.722;12.012;2023-04-10T03:28:32;102200.25;;;3.06;100.00
19600;BME280;9947;57.722;12.012;2023-04-10T03:31:09;102192.22;;;3.06;100.00
19600;BME280;9947;57.722;12.012;2023-04-10T03:33:36;102191.44;;;3.03;100.00
19600;BME280;9947;57.722;12.012;2023-04-10T03:36:08;102194.06;;;3.04;100.00
19600;BME280;9947;57.722;12.012;2023-04-10T03:38:36;102191.50;;;3.00;100.00
19600;BME280;9947;57.722;12.012;2023-04-10T03:41:12;102186.16;;;3.00;100.00
19600;BME280;9947;57.722;12.012;2023-04-10T03:43:39;102182.66;;;2.98;100.00
19600;BME280;9947;57.722;12.012;2023-04-10T03:46:09;102173.78;;;2.96;100.00
19600;BME280;9947;57.722;12.012;2023-04-10T03:48:36;102175.72;;;2.89;100.00
19600;BME280;9947;57.722;12.012;2023-04-10T03:51:06;102171.34;;;2.85;100.00
19600;BME280;9947;57.722;12.012;2023-04-10T03:53:41;102172.31;;;2.81;100.00
19600;BME280;9947;57.722;12.012;2023-04-10T03:56:16;102162.03;;;2.64;100.00
19600;BME280;9947;57.722;12.012;2023-04-10T03:58:43;102171.09;;;2.54;100.00
19600;BME280;9947;57.722;12.012;2023-04-10T04:01:10;102166.94;;;2.41;100.00
19600;BME280;9947;57.722;12.012;2023-04-10T04:03:38;102163.53;;;2.34;100.00
19600;BME280;9947;57.722;12.012;2023-04-10T04:06:07;102160.22;;;2.22;100.00
19600;BME280;9947;57.722;12.012;2023-04-10T04:08:35;102160.25;;;2.20;100.00
19600;BME280;9947;57.722;12.012;2023-04-10T04:11:03;102156.84;;;2.12;100.00
19600;BME280;9947;57.722;12.012;2023-04-10T04:13:31;102143.63;;;2.04;100.00
19600;BME280;9947;57.722;12.012;2023-04-10T04:15:58;102139.25;;;2.02;100.00
19600;BME280;9947;57.722;12.012;2023-04-10T04:18:36;102139.38;;;1.96;100.00
19600;BME280;9947;57.722;12.012;2023-04-10T04:21:07;102136.50;;;2.05;100.00
19600;BME280;9947;57.722;12.012;2023-04-10T04:23:35;102142.63;;;2.11;100.00
19600;BME280;9947;57.722;12.012;2023-04-10T04:26:02;102131.97;;;2.11;100.00
19600;BME280;9947;57.722;12.012;2023-04-10T04:28:31;102137.06;;;2.22;100.00
19600;BME280;9947;57.722;12.012;2023-04-10T04:31:05;102134.44;;;2.21;100.00
19600;BME280;9947;57.722;12.012;2023-04-10T04:33:32;102127.94;;;2.34;100.00
19600;BME280;9947;57.722;12.012;2023-04-10T04:36:01;102132.72;;;2.60;100.00
19600;BME280;9947;57.722;12.012;2023-04-10T04:38:34;102135.69;;;2.88;100.00
19600;BME280;9947;57.722;12.012;2023-04-10T04:41:04;102137.78;;;3.12;100.00
19600;BME280;9947;57.722;12.012;2023-04-10T04:43:34;102135.31;;;3.03;100.00
19600;BME280;9947;57.722;12.012;2023-04-10T04:46:01;102140.72;;;3.38;100.00
19600;BME280;9947;57.722;12.012;2023-04-10T04:48:28;102142.38;;;3.78;100.00
19600;BME280;9947;57.722;12.012;2023-04-10T04:50:56;102136.41;;;4.01;100.00
19600;BME280;9947;57.722;12.012;2023-04-10T04:53:23;102137.81;;;4.14;100.00
19600;BME280;9947;57.722;12.012;2023-04-10T04:56:03;102131.47;;;4.49;100.00
19600;BME280;9947;57.722;12.012;2023-04-10T04:58:38;102139.28;;;4.86;100.00
19600;BME280;9947;57.722;12.012;2023-04-10T05:01:07;102132.41;;;5.34;100.00
19600;BME280;9947;57.722;12.012;2023-04-10T05:03:39;102138.25;;;4.90;100.00
19600;BME280;9947;57.722;12.012;2023-04-10T05:06:08;102132.69;;;5.26;100.00
19600;BME280;9947;57.722;12.012;2023-04-10T05:08:40;102137.19;;;5.52;100.00
19600;BME280;9947;57.722;12.012;2023-04-10T05:11:12;102130.59;;;5.87;96.05
19600;BME280;9947;57.722;12.012;2023-04-10T05:13:39;102130.41;;;6.90;90.24
19600;BME280;9947;57.722;12.012;2023-04-10T05:16:08;102130.88;;;6.77;86.89
19600;BME280;9947;57.722;12.012;2023-04-10T05:18:35;102134.31;;;7.04;83.64
19600;BME280;9947;57.722;12.012;2023-04-10T05:21:03;102123.63;;;6.56;85.56
19600;BME280;9947;57.722;12.012;2023-04-10T05:23:35;102138.31;;;7.38;80.92
19600;BME280;9947;57.722;12.012;2023-04-10T05:26:06;102138.94;;;7.45;80.50
19600;BME280;9947;57.722;12.012;2023-04-10T05:28:35;102125.16;;;6.63;83.07
19600;BME280;9947;57.722;12.012;2023-04-10T05:31:02;102121.47;;;6.17;86.58
19600;BME280;9947;57.722;12.012;2023-04-10T05:33:30;102119.91;;;6.12;88.44
19600;BME280;9947;57.722;12.012;2023-04-10T05:36:00;102110.97;;;5.60;90.71
19600;BME280;9947;57.722;12.012;2023-04-10T05:38:40;102108.50;;;5.28;94.56
19600;BME280;9947;57.722;12.012;2023-04-10T05:41:13;102111.38;;;5.21;94.57
19600;BME280;9947;57.722;12.012;2023-04-10T05:43:41;102106.09;;;5.18;95.84
19600;BME280;9947;57.722;12.012;2023-04-10T05:46:14;102110.72;;;5.41;96.77
19600;BME280;9947;57.722;12.012;2023-04-10T05:48:44;102107.03;;;5.70;93.33
19600;BME280;9947;57.722;12.012;2023-04-10T05:51:15;102105.84;;;6.54;88.21
19600;BME280;9947;57.722;12.012;2023-04-10T05:53:44;102106.53;;;7.04;82.63
19600;BME280;9947;57.722;12.012;2023-04-10T05:56:12;102111.47;;;7.36;80.51
19600;BME280;9947;57.722;12.012;2023-04-10T05:58:41;102106.84;;;7.40;78.57
19600;BME280;9947;57.722;12.012;2023-04-10T06:01:15;102105.41;;;7.31;77.47
19600;BME280;9947;57.722;12.012;2023-04-10T06:03:44;102096.03;;;7.20;77.98
19600;BME280;9947;57.722;12.012;2023-04-10T06:06:13;102093.88;;;7.28;77.60
19600;BME280;9947;57.722;12.012;2023-04-10T06:08:40;102093.94;;;7.48;76.43
19600;BME280;9947;57.722;12.012;2023-04-10T06:11:11;102095.63;;;7.51;75.99
19600;BME280;9947;57.722;12.012;2023-04-10T06:13:40;102088.22;;;7.14;77.26
19600;BME280;9947;57.722;12.012;2023-04-10T06:16:13;102083.78;;;7.13;78.09
19600;BME280;9947;57.722;12.012;2023-04-10T06:18:43;102086.69;;;6.85;78.02
19600;BME280;9947;57.722;12.012;2023-04-10T06:21:11;102090.19;;;6.87;79.87
19600;BME280;9947;57.722;12.012;2023-04-10T06:23:45;102083.44;;;6.98;80.22
19600;BME280;9947;57.722;12.012;2023-04-10T06:26:14;102088.16;;;7.15;78.62
19600;BME280;9947;57.722;12.012;2023-04-10T06:28:43;102078.66;;;7.06;78.75
19600;BME280;9947;57.722;12.012;2023-04-10T06:31:11;102080.75;;;7.20;78.06
19600;BME280;9947;57.722;12.012;2023-04-10T06:33:37;102082.22;;;6.62;81.25
19600;BME280;9947;57.722;12.012;2023-04-10T06:36:13;102084.09;;;7.05;81.63
19600;BME280;9947;57.722;12.012;2023-04-10T06:38:40;102090.63;;;7.20;78.52
19600;BME280;9947;57.722;12.012;2023-04-10T06:41:09;102088.25;;;6.90;78.37
19600;BME280;9947;57.722;12.012;2023-04-10T06:43:43;102088.06;;;6.49;81.43
19600;BME280;9947;57.722;12.012;2023-04-10T06:46:11;102082.75;;;6.48;81.25
19600;BME280;9947;57.722;12.012;2023-04-10T06:48:40;102079.59;;;6.60;83.12
19600;BME280;9947;57.722;12.012;2023-04-10T06:51:08;102079.59;;;6.37;81.82
19600;BME280;9947;57.722;12.012;2023-04-10T06:53:36;102080.84;;;6.52;81.39
19600;BME280;9947;57.722;12.012;2023-04-10T06:56:03;102081.69;;;7.19;84.53
19600;BME280;9947;57.722;12.012;2023-04-10T06:58:31;102072.50;;;6.81;80.06
19600;BME280;9947;57.722;12.012;2023-04-10T07:01:11;102085.78;;;7.07;76.53
19600;BME280;9947;57.722;12.012;2023-04-10T07:03:39;102067.75;;;7.09;73.58
19600;BME280;9947;57.722;12.012;2023-04-10T07:06:10;102073.94;;;7.33;72.79
19600;BME280;9947;57.722;12.012;2023-04-10T07:08:38;102078.25;;;7.37;72.19
19600;BME280;9947;57.722;12.012;2023-04-10T07:11:07;102065.56;;;7.61;71.84
19600;BME280;9947;57.722;12.012;2023-04-10T07:13:36;102061.16;;;7.81;68.08
19600;BME280;9947;57.722;12.012;2023-04-10T07:16:05;102065.63;;;7.80;68.33
19600;BME280;9947;57.722;12.012;2023-04-10T07:18:38;102048.13;;;8.29;66.57
19600;BME280;9947;57.722;12.012;2023-04-10T07:21:09;102055.06;;;7.96;66.43
19600;BME280;9947;57.722;12.012;2023-04-10T07:23:38;102056.56;;;8.22;65.08
19600;BME280;9947;57.722;12.012;2023-04-10T07:26:13;102059.56;;;8.16;64.27
19600;BME280;9947;57.722;12.012;2023-04-10T07:28:42;102056.34;;;8.26;63.05
19600;BME280;9947;57.722;12.012;2023-04-10T07:31:10;102058.25;;;8.45;64.94
19600;BME280;9947;57.722;12.012;2023-04-10T07:33:40;102053.59;;;8.67;64.28
19600;BME280;9947;57.722;12.012;2023-04-10T07:36:20;102048.50;;;8.61;63.43
19600;BME280;9947;57.722;12.012;2023-04-10T07:38:51;102041.91;;;8.48;63.71
19600;BME280;9947;57.722;12.012;2023-04-10T07:41:19;102041.50;;;8.38;64.17
19600;BME280;9947;57.722;12.012;2023-04-10T07:43:52;102043.97;;;8.43;62.98
19600;BME280;9947;57.722;12.012;2023-04-10T07:46:22;102041.94;;;8.09;64.72
19600;BME280;9947;57.722;12.012;2023-04-10T07:48:51;102032.69;;;8.14;65.33
19600;BME280;9947;57.722;12.012;2023-04-10T07:51:19;102028.97;;;8.17;65.26
19600;BME280;9947;57.722;12.012;2023-04-10T07:53:53;102034.09;;;8.02;65.71
19600;BME280;9947;57.722;12.012;2023-04-10T07:56:21;102023.97;;;7.89;66.87
19600;BME280;9947;57.722;12.012;2023-04-10T07:58:50;102029.09;;;7.74;68.21
19600;BME280;9947;57.722;12.012;2023-04-10T08:01:19;102026.84;;;8.04;67.34
19600;BME280;9947;57.722;12.012;2023-04-10T08:03:47;102020.53;;;8.24;66.53
19600;BME280;9947;57.722;12.012;2023-04-10T08:06:21;102023.44;;;8.40;66.46
19600;BME280;9947;57.722;12.012;2023-04-10T08:08:49;102019.19;;;8.53;64.70
19600;BME280;9947;57.722;12.012;2023-04-10T08:11:26;102020.28;;;8.68;63.29
19600;BME280;9947;57.722;12.012;2023-04-10T08:13:55;102018.38;;;9.06;62.60
19600;BME280;9947;57.722;12.012;2023-04-10T08:16:24;102017.72;;;9.20;59.74
19600;BME280;9947;57.722;12.012;2023-04-10T08:18:53;102010.97;;;9.46;60.14
19600;BME280;9947;57.722;12.012;2023-04-10T08:21:29;102012.31;;;9.72;59.05
19600;BME280;9947;57.722;12.012;2023-04-10T08:24:02;102005.06;;;9.89;57.79
19600;BME280;9947;57.722;12.012;2023-04-10T08:26:32;101999.66;;;9.89;57.82
19600;BME280;9947;57.722;12.012;2023-04-10T08:29:01;101992.97;;;9.64;57.59
19600;BME280;9947;57.722;12.012;2023-04-10T08:31:38;101987.50;;;9.81;57.38
19600;BME280;9947;57.722;12.012;2023-04-10T08:34:11;101984.09;;;9.77;57.27
19600;BME280;9947;57.722;12.012;2023-04-10T08:36:42;101983.78;;;9.83;56.50
19600;BME280;9947;57.722;12.012;2023-04-10T08:39:11;101975.38;;;9.89;55.71
19600;BME280;9947;57.722;12.012;2023-04-10T08:41:40;101981.16;;;9.82;56.52
19600;BME280;9947;57.722;12.012;2023-04-10T08:44:11;101980.59;;;9.93;55.56
19600;BME280;9947;57.722;12.012;2023-04-10T08:46:47;101986.50;;;10.16;54.72
19600;BME280;9947;57.722;12.012;2023-04-10T08:49:23;101982.19;;;10.45;52.37
19600;BME280;9947;57.722;12.012;2023-04-10T08:52:01;101979.31;;;10.48;53.00
19600;BME280;9947;57.722;12.012;2023-04-10T08:54:33;101967.34;;;10.53;51.62
19600;BME280;9947;57.722;12.012;2023-04-10T08:57:09;101967.72;;;10.46;51.19
19600;BME280;9947;57.722;12.012;2023-04-10T08:59:42;101971.28;;;10.31;50.26
19600;BME280;9947;57.722;12.012;2023-04-10T09:02:11;101965.50;;;10.37;50.52
19600;BME280;9947;57.722;12.012;2023-04-10T09:04:46;101962.13;;;10.49;48.71
19600;BME280;9947;57.722;12.012;2023-04-10T09:07:15;101959.59;;;10.62;48.43
19600;BME280;9947;57.722;12.012;2023-04-10T09:09:43;101948.09;;;10.43;47.80
19600;BME280;9947;57.722;12.012;2023-04-10T09:12:11;101958.72;;;10.46;47.78
19600;BME280;9947;57.722;12.012;2023-04-10T09:14:50;101945.91;;;10.49;46.55
19600;BME280;9947;57.722;12.012;2023-04-10T09:17:27;101947.75;;;10.49;47.18
19600;BME280;9947;57.722;12.012;2023-04-10T09:20:20;101937.88;;;10.32;47.76
19600;BME280;9947;57.722;12.012;2023-04-10T09:22:51;101934.31;;;10.32;47.56
19600;BME280;9947;57.722;12.012;2023-04-10T09:25:31;101932.22;;;10.53;46.91
19600;BME280;9947;57.722;12.012;2023-04-10T09:28:05;101932.13;;;10.70;47.18
19600;BME280;9947;57.722;12.012;2023-04-10T09:30:34;101928.13;;;10.91;47.16
19600;BME280;9947;57.722;12.012;2023-04-10T09:33:02;101924.75;;;10.88;46.98
19600;BME280;9947;57.722;12.012;2023-04-10T09:35:37;101915.63;;;11.04;47.06
19600;BME280;9947;57.722;12.012;2023-04-10T09:38:17;101916.97;;;10.97;45.79
19600;BME280;9947;57.722;12.012;2023-04-10T09:40:47;101913.88;;;11.03;44.86
19600;BME280;9947;57.722;12.012;2023-04-10T09:43:17;101914.56;;;11.07;45.38
19600;BME280;9947;57.722;12.012;2023-04-10T09:45:50;101907.44;;;10.90;45.76
19600;BME280;9947;57.722;12.012;2023-04-10T09:48:19;101900.44;;;11.02;45.22
19600;BME280;9947;57.722;12.012;2023-04-10T09:50:54;101889.94;;;11.11;45.17
19600;BME280;9947;57.722;12.012;2023-04-10T09:53:26;101897.03;;;11.28;44.17
19600;BME280;9947;57.722;12.012;2023-04-10T09:55:56;101888.13;;;11.26;43.09
19600;BME280;9947;57.722;12.012;2023-04-10T09:58:25;101886.50;;;11.38;42.85
19600;BME280;9947;57.722;12.012;2023-04-10T10:00:53;101881.28;;;11.21;43.00
19600;BME280;9947;57.722;12.012;2023-04-10T10:03:20;101879.91;;;11.42;41.87
19600;BME280;9947;57.722;12.012;2023-04-10T10:05:57;101869.00;;;11.29;42.81
19600;BME280;9947;57.722;12.012;2023-04-10T10:08:35;101868.13;;;11.43;43.01
19600;BME280;9947;57.722;12.012;2023-04-10T10:11:12;101857.63;;;11.53;43.16
19600;BME280;9947;57.722;12.012;2023-04-10T10:13:48;101853.44;;;11.76;41.81
19600;BME280;9947;57.722;12.012;2023-04-10T10:16:22;101852.38;;;11.50;40.24
19600;BME280;9947;57.722;12.012;2023-04-10T10:19:00;101851.50;;;11.63;40.34
19600;BME280;9947;57.722;12.012;2023-04-10T10:21:43;101850.66;;;11.49;41.07
19600;BME280;9947;57.722;12.012;2023-04-10T10:24:13;101840.97;;;11.59;41.56
19600;BME280;9947;57.722;12.012;2023-04-10T10:26:42;101839.22;;;11.43;41.70
19600;BME280;9947;57.722;12.012;2023-04-10T10:29:14;101833.72;;;11.59;41.14
19600;BME280;9947;57.722;12.012;2023-04-10T10:31:45;101822.28;;;11.68;40.21
19600;BME280;9947;57.722;12.012;2023-04-10T10:34:16;101819.97;;;11.34;40.53
19600;BME280;9947;57.722;12.012;2023-04-10T10:36:44;101816.00;;;11.39;41.11
19600;BME280;9947;57.722;12.012;2023-04-10T10:39:23;101806.34;;;11.50;40.43
19600;BME280;9947;57.722;12.012;2023-04-10T10:41:59;101802.59;;;11.52;40.48
19600;BME280;9947;57.722;12.012;2023-04-10T10:44:38;101801.41;;;11.42;39.87
19600;BME280;9947;57.722;12.012;2023-04-10T10:47:14;101799.88;;;11.52;39.16
19600;BME280;9947;57.722;12.012;2023-04-10T10:49:52;101796.66;;;11.88;38.58
19600;BME280;9947;57.722;12.012;2023-04-10T10:52:43;101798.50;;;11.88;38.62
19600;BME280;9947;57.722;12.012;2023-04-10T10:55:32;101780.50;;;11.72;38.57
19600;BME280;9947;57.722;12.012;2023-04-10T10:58:06;101794.91;;;11.44;39.94
19600;BME280;9947;57.722;12.012;2023-04-10T11:01:05;101786.09;;;11.69;40.20
19600;BME280;9947;57.722;12.012;2023-04-10T11:03:34;101776.19;;;11.97;40.18
19600;BME280;9947;57.722;12.012;2023-04-10T11:06:03;101765.84;;;12.03;39.57
19600;BME280;9947;57.722;12.012;2023-04-10T11:08:40;101762.91;;;11.80;40.44
19600;BME280;9947;57.722;12.012;2023-04-10T11:11:16;101761.19;;;11.50;40.63
19600;BME280;9947;57.722;12.012;2023-04-10T11:16:56;101758.19;;;11.55;41.36
19600;BME280;9947;57.722;12.012;2023-04-10T11:19:57;101744.09;;;11.50;42.38
19600;BME280;9947;57.722;12.012;2023-04-10T11:22:26;101742.13;;;11.52;41.93
19600;BME280;9947;57.722;12.012;2023-04-10T11:24:57;101743.75;;;11.83;41.92
19600;BME280;9947;57.722;12.012;2023-04-10T11:27:46;101738.22;;;12.11;40.84
19600;BME280;9947;57.722;12.012;2023-04-10T11:30:31;101729.88;;;12.14;40.79
19600;BME280;9947;57.722;12.012;2023-04-10T11:33:01;101720.63;;;12.04;41.38
19600;BME280;9947;57.722;12.012;2023-04-10T11:35:31;101719.50;;;11.94;41.95
19600;BME280;9947;57.722;12.012;2023-04-10T11:38:13;101716.22;;;12.16;41.76
19600;BME280;9947;57.722;12.012;2023-04-10T11:40:58;101717.78;;;12.32;41.42
19600;BME280;9947;57.722;12.012;2023-04-10T11:43:33;101702.84;;;12.40;40.94
19600;BME280;9947;57.722;12.012;2023-04-10T11:46:03;101697.78;;;12.21;41.49
19600;BME280;9947;57.722;12.012;2023-04-10T11:48:32;101684.88;;;11.99;42.30
19600;BME280;9947;57.722;12.012;2023-04-10T11:51:06;101684.38;;;12.32;41.70
19600;BME280;9947;57.722;12.012;2023-04-10T11:53:33;101681.47;;;12.48;41.05
19600;BME280;9947;57.722;12.012;2023-04-10T11:56:02;101685.63;;;12.53;41.57
19600;BME280;9947;57.722;12.012;2023-04-10T11:58:29;101675.09;;;12.87;40.87
19600;BME280;9947;57.722;12.012;2023-04-10T12:01:07;101669.50;;;13.26;40.61
19600;BME280;9947;57.722;12.012;2023-04-10T12:03:40;101672.91;;;13.30;40.15
19600;BME280;9947;57.722;12.012;2023-04-10T12:06:11;101656.75;;;13.03;40.68
19600;BME280;9947;57.722;12.012;2023-04-10T12:08:41;101651.31;;;13.03;40.25
19600;BME280;9947;57.722;12.012;2023-04-10T12:11:12;101646.53;;;13.07;40.09
19600;BME280;9947;57.722;12.012;2023-04-10T12:13:42;101647.69;;;13.15;39.80
19600;BME280;9947;57.722;12.012;2023-04-10T12:16:11;101642.59;;;12.98;40.24
19600;BME280;9947;57.722;12.012;2023-04-10T12:18:48;101637.06;;;13.12;40.04
19600;BME280;9947;57.722;12.012;2023-04-10T12:21:19;101619.75;;;13.26;39.91
19600;BME280;9947;57.722;12.012;2023-04-10T12:23:49;101637.28;;;13.22;39.68
19600;BME280;9947;57.722;12.012;2023-04-10T12:26:22;101626.19;;;13.12;39.58
19600;BME280;9947;57.722;12.012;2023-04-10T12:28:53;101621.25;;;13.43;39.01
19600;BME280;9947;57.722;12.012;2023-04-10T12:31:31;101615.91;;;13.05;39.76
19600;BME280;9947;57.722;12.012;2023-04-10T12:34:17;101613.56;;;12.62;40.39
19600;BME280;9947;57.722;12.012;2023-04-10T12:36:53;101610.00;;;12.36;41.20
19600;BME280;9947;57.722;12.012;2023-04-10T12:39:23;101616.09;;;12.52;41.20
19600;BME280;9947;57.722;12.012;2023-04-10T12:42:10;101607.50;;;12.33;41.11
19600;BME280;9947;57.722;12.012;2023-04-10T12:44:49;101605.31;;;12.63;40.65
19600;BME280;9947;57.722;12.012;2023-04-10T12:47:22;101594.69;;;12.60;39.81
19600;BME280;9947;57.722;12.012;2023-04-10T12:50:04;101594.88;;;12.70;40.32
19600;BME280;9947;57.722;12.012;2023-04-10T12:52:35;101592.41;;;12.67;40.89
19600;BME280;9947;57.722;12.012;2023-04-10T12:55:14;101584.25;;;12.67;40.64
19600;BME280;9947;57.722;12.012;2023-04-10T12:57:48;101579.28;;;12.61;40.71
19600;BME280;9947;57.722;12.012;2023-04-10T13:00:22;101567.16;;;12.54;41.25
19600;BME280;9947;57.722;12.012;2023-04-10T13:02:51;101560.75;;;12.55;41.25
19600;BME280;9947;57.722;12.012;2023-04-10T13:05:19;101561.69;;;12.66;40.86
19600;BME280;9947;57.722;12.012;2023-04-10T13:07:47;101558.34;;;12.63;41.31
19600;BME280;9947;57.722;12.012;2023-04-10T13:10:17;101560.72;;;12.80;40.37
19600;BME280;9947;57.722;12.012;2023-04-10T13:12:48;101555.63;;;13.00;40.26
19600;BME280;9947;57.722;12.012;2023-04-10T13:15:15;101546.75;;;12.97;40.71
19600;BME280;9947;57.722;12.012;2023-04-10T13:17:43;101542.50;;;13.06;40.99
19600;BME280;9947;57.722;12.012;2023-04-10T13:20:16;101538.78;;;13.20;41.15
19600;BME280;9947;57.722;12.012;2023-04-10T13:22:47;101540.66;;;13.07;41.19
19600;BME280;9947;57.722;12.012;2023-04-10T13:25:14;101543.97;;;12.86;41.25